sensor_id;sensor_type;location;lat;lon;timestamp;P1;durP1;ratioP1;P2;durP2;ratioP2
49678;SDS011;35570;48.218;16.326;2023-04-03T00:01:00;3.15;;;2.47;;
49678;SDS011;35570;48.218;16.326;2023-04-03T00:06:02;2.75;;;2.08;;
49678;SDS011;35570;48.218;16.326;2023-04-03T00:08:29;2.75;;;2.00;;
49678;SDS011;35570;48.218;16.326;2023-04-03T00:26:40;3.10;;;2.22;;
49678;SDS011;35570;48.218;16.326;2023-04-03T00:29:06;3.13;;;1.90;;
49678;SDS011;35570;48.218;16.326;2023-04-03T00:31:32;4.63;;;2.30;;
49678;SDS011;35570;48.218;16.326;2023-04-03T00:34:04;4.18;;;2.70;;
49678;SDS011;35570;48.218;16.326;2023-04-03T00:36:29;2.88;;;2.25;;
49678;SDS011;35570;48.218;16.326;2023-04-03T00:38:59;2.42;;;2.00;;
49678;SDS011;35570;48.218;16.326;2023-04-03T00:41:25;5.57;;;2.10;;
49678;SDS011;35570;48.218;16.326;2023-04-03T00:47:32;2.47;;;2.00;;
49678;SDS011;35570;48.218;16.326;2023-04-03T00:53:31;2.67;;;2.20;;
49678;SDS011;35570;48.218;16.326;2023-04-03T00:56:37;3.45;;;1.85;;
49678;SDS011;35570;48.218;16.326;2023-04-03T01:02:05;3.17;;;2.05;;
49678;SDS011;35570;48.218;16.326;2023-04-03T01:04:32;2.58;;;2.03;;
49678;SDS011;35570;48.218;16.326;2023-04-03T01:07:01;3.47;;;2.40;;
49678;SDS011;35570;48.218;16.326;2023-04-03T01:12:49;2.58;;;2.30;;
49678;SDS011;35570;48.218;16.326;2023-04-03T01:15:17;3.85;;;2.05;;
49678;SDS011;35570;48.218;16.326;2023-04-03T01:17:46;5.30;;;2.33;;
49678;SDS011;35570;48.218;16.326;2023-04-03T01:26:42;4.13;;;2.20;;
49678;SDS011;35570;48.218;16.326;2023-04-03T01:35:00;3.35;;;2.08;;
49678;SDS011;35570;48.218;16.326;2023-04-03T01:37:44;3.33;;;2.60;;
49678;SDS011;35570;48.218;16.326;2023-04-03T01:40:14;3.35;;;2.25;;
49678;SDS011;35570;48.218;16.326;2023-04-03T01:45:25;2.58;;;2.17;;
49678;SDS011;35570;48.218;16.326;2023-04-03T01:47:51;3.97;;;2.40;;
49678;SDS011;35570;48.218;16.326;2023-04-03T01:50:18;3.28;;;2.10;;
49678;SDS011;35570;48.218;16.326;2023-04-03T01:52:52;3.20;;;2.35;;
49678;SDS011;35570;48.218;16.326;2023-04-03T01:55:17;3.35;;;2.05;;
49678;SDS011;35570;48.218;16.326;2023-04-03T01:57:52;4.53;;;2.13;;
49678;SDS011;35570;48.218;16.326;2023-04-03T02:00:22;3.88;;;2.33;;
49678;SDS011;35570;48.218;16.326;2023-04-03T02:02:53;3.55;;;2.15;;
49678;SDS011;35570;48.218;16.326;2023-04-03T02:05:21;3.28;;;2.10;;
49678;SDS011;35570;48.218;16.326;2023-04-03T02:08:04;3.67;;;2.20;;
49678;SDS011;35570;48.218;16.326;2023-04-03T02:10:30;3.58;;;2.17;;
49678;SDS011;35570;48.218;16.326;2023-04-03T02:13:01;2.90;;;2.00;;
49678;SDS011;35570;48.218;16.326;2023-04-03T02:15:34;3.10;;;2.13;;
49678;SDS011;35570;48.218;16.326;2023-04-03T02:20:53;3.13;;;2.20;;
49678;SDS011;35570;48.218;16.326;2023-04-03T02:23:26;3.72;;;2.45;;
49678;SDS011;35570;48.218;16.326;2023-04-03T02:28:36;4.68;;;2.55;;
49678;SDS011;35570;48.218;16.326;2023-04-03T02:31:04;3.72;;;2.75;;
49678;SDS011;35570;48.218;16.326;2023-04-03T02:33:43;2.95;;;2.33;;
49678;SDS011;35570;48.218;16.326;2023-04-03T02:36:09;3.58;;;2.45;;
49678;SDS011;35570;48.218;16.326;2023-04-03T02:38:53;3.80;;;2.78;;
49678;SDS011;35570;48.218;16.326;2023-04-03T02:41:18;3.25;;;2.70;;
49678;SDS011;35570;48.218;16.326;2023-04-03T02:43:50;2.67;;;2.28;;
49678;SDS011;35570;48.218;16.326;2023-04-03T02:46:17;2.47;;;2.08;;
49678;SDS011;35570;48.218;16.326;2023-04-03T02:49:01;4.15;;;2.67;;
49678;SDS011;35570;48.218;16.326;2023-04-03T02:54:40;5.60;;;2.53;;
49678;SDS011;35570;48.218;16.326;2023-04-03T02:57:06;4.53;;;2.60;;
49678;SDS011;35570;48.218;16.326;2023-04-03T02:59:55;3.10;;;2.28;;
49678;SDS011;35570;48.218;16.326;2023-04-03T03:02:26;4.30;;;2.78;;
49678;SDS011;35570;48.218;16.326;2023-04-03T03:04:52;3.90;;;2.47;;
49678;SDS011;35570;48.218;16.326;2023-04-03T03:10:09;3.45;;;2.33;;
49678;SDS011;35570;48.218;16.326;2023-04-03T03:12:36;3.40;;;2.20;;
49678;SDS011;35570;48.218;16.326;2023-04-03T03:15:09;3.95;;;2.60;;
49678;SDS011;35570;48.218;16.326;2023-04-03T03:17:36;2.90;;;2.08;;
49678;SDS011;35570;48.218;16.326;2023-04-03T03:20:08;2.60;;;1.80;;
49678;SDS011;35570;48.218;16.326;2023-04-03T03:22:34;2.88;;;2.22;;
49678;SDS011;35570;48.218;16.326;2023-04-03T03:25:00;6.05;;;2.72;;
49678;SDS011;35570;48.218;16.326;2023-04-03T03:39:33;3.97;;;1.95;;
49678;SDS011;35570;48.218;16.326;2023-04-03T03:45:21;4.70;;;2.50;;
49678;SDS011;35570;48.218;16.326;2023-04-03T03:47:47;2.72;;;2.25;;
49678;SDS011;35570;48.218;16.326;2023-04-03T03:58:29;3.55;;;2.53;;
49678;SDS011;35570;48.218;16.326;2023-04-03T04:03:47;3.78;;;2.10;;
49678;SDS011;35570;48.218;16.326;2023-04-03T04:23:36;3.15;;;2.17;;
49678;SDS011;35570;48.218;16.326;2023-04-03T04:31:49;4.50;;;2.25;;
49678;SDS011;35570;48.218;16.326;2023-04-03T04:36:56;4.55;;;2.50;;
49678;SDS011;35570;48.218;16.326;2023-04-03T04:39:26;3.13;;;2.33;;
49678;SDS011;35570;48.218;16.326;2023-04-03T04:44:42;3.50;;;2.25;;
49678;SDS011;35570;48.218;16.326;2023-04-03T04:50:20;3.28;;;2.17;;
49678;SDS011;35570;48.218;16.326;2023-04-03T04:55:46;3.83;;;2.53;;
49678;SDS011;35570;48.218;16.326;2023-04-03T05:01:02;3.45;;;2.30;;
49678;SDS011;35570;48.218;16.326;2023-04-03T05:03:29;5.35;;;2.53;;
49678;SDS011;35570;48.218;16.326;2023-04-03T05:06:14;5.32;;;2.65;;
49678;SDS011;35570;48.218;16.326;2023-04-03T05:08:40;3.25;;;2.33;;
49678;SDS011;35570;48.218;16.326;2023-04-03T05:11:12;4.13;;;2.50;;
49678;SDS011;35570;48.218;16.326;2023-04-03T05:13:42;4.47;;;2.50;;
49678;SDS011;35570;48.218;16.326;2023-04-03T05:19:01;4.80;;;2.47;;
49678;SDS011;35570;48.218;16.326;2023-04-03T05:21:27;2.72;;;2.10;;
49678;SDS011;35570;48.218;16.326;2023-04-03T05:26:55;5.50;;;2.60;;
49678;SDS011;35570;48.218;16.326;2023-04-03T05:29:23;4.25;;;2.67;;
49678;SDS011;35570;48.218;16.326;2023-04-03T05:31:53;3.72;;;2.47;;
49678;SDS011;35570;48.218;16.326;2023-04-03T05:34:26;3.60;;;2.17;;
49678;SDS011;35570;48.218;16.326;2023-04-03T05:36:59;4.53;;;2.50;;
49678;SDS011;35570;48.218;16.326;2023-04-03T05:39:31;3.40;;;2.00;;
49678;SDS011;35570;48.218;16.326;2023-04-03T05:42:14;5.00;;;2.50;;
49678;SDS011;35570;48.218;16.326;2023-04-03T05:44:58;3.97;;;2.65;;
49678;SDS011;35570;48.218;16.326;2023-04-03T05:47:34;4.18;;;2.42;;
49678;SDS011;35570;48.218;16.326;2023-04-03T05:49:59;3.42;;;2.47;;
49678;SDS011;35570;48.218;16.326;2023-04-03T05:52:38;4.43;;;2.30;;
49678;SDS011;35570;48.218;16.326;2023-04-03T06:01:01;4.28;;;2.38;;
49678;SDS011;35570;48.218;16.326;2023-04-03T06:06:16;4.43;;;2.60;;
49678;SDS011;35570;48.218;16.326;2023-04-03T06:11:22;5.32;;;2.42;;
49678;SDS011;35570;48.218;16.326;2023-04-03T06:13:48;3.55;;;2.40;;
49678;SDS011;35570;48.218;16.326;2023-04-03T06:18:52;4.05;;;2.55;;
49678;SDS011;35570;48.218;16.326;2023-04-03T06:21:19;4.97;;;2.20;;
49678;SDS011;35570;48.218;16.326;2023-04-03T06:23:50;3.75;;;2.40;;
49678;SDS011;35570;48.218;16.326;2023-04-03T06:26:17;3.28;;;2.40;;
49678;SDS011;35570;48.218;16.326;2023-04-03T06:31:46;6.35;;;2.55;;
49678;SDS011;35570;48.218;16.326;2023-04-03T06:34:15;7.40;;;2.97;;
49678;SDS011;35570;48.218;16.326;2023-04-03T06:39:59;5.43;;;2.58;;
49678;SDS011;35570;48.218;16.326;2023-04-03T06:42:25;4.18;;;2.58;;
49678;SDS011;35570;48.218;16.326;2023-04-03T06:44:51;3.95;;;2.45;;
49678;SDS011;35570;48.218;16.326;2023-04-03T06:47:17;6.57;;;2.75;;
49678;SDS011;35570;48.218;16.326;2023-04-03T06:49:43;7.85;;;3.00;;
49678;SDS011;35570;48.218;16.326;2023-04-03T06:52:10;4.72;;;2.78;;
49678;SDS011;35570;48.218;16.326;2023-04-03T06:54:38;4.47;;;2.83;;
49678;SDS011;35570;48.218;16.326;2023-04-03T06:57:04;6.78;;;2.80;;
49678;SDS011;35570;48.218;16.326;2023-04-03T06:59:31;4.90;;;2.45;;
49678;SDS011;35570;48.218;16.326;2023-04-03T07:01:57;3.55;;;2.10;;
49678;SDS011;35570;48.218;16.326;2023-04-03T07:04:24;5.90;;;2.30;;
49678;SDS011;35570;48.218;16.326;2023-04-03T07:06:51;3.90;;;2.35;;
49678;SDS011;35570;48.218;16.326;2023-04-03T07:09:19;4.00;;;2.13;;
49678;SDS011;35570;48.218;16.326;2023-04-03T07:11:45;7.35;;;3.13;;
49678;SDS011;35570;48.218;16.326;2023-04-03T07:14:11;5.97;;;3.03;;
49678;SDS011;35570;48.218;16.326;2023-04-03T07:16:37;6.22;;;3.22;;
49678;SDS011;35570;48.218;16.326;2023-04-03T07:19:04;6.72;;;3.55;;
49678;SDS011;35570;48.218;16.326;2023-04-03T07:21:31;9.10;;;3.22;;
49678;SDS011;35570;48.218;16.326;2023-04-03T07:23:57;3.50;;;2.45;;
49678;SDS011;35570;48.218;16.326;2023-04-03T07:26:29;4.22;;;2.47;;
49678;SDS011;35570;48.218;16.326;2023-04-03T07:28:55;5.53;;;2.45;;
49678;SDS011;35570;48.218;16.326;2023-04-03T07:31:23;4.75;;;2.33;;
49678;SDS011;35570;48.218;16.326;2023-04-03T07:33:54;4.78;;;2.83;;
49678;SDS011;35570;48.218;16.326;2023-04-03T07:36:21;3.55;;;2.35;;
49678;SDS011;35570;48.218;16.326;2023-04-03T07:38:49;4.93;;;2.10;;
49678;SDS011;35570;48.218;16.326;2023-04-03T07:41:19;4.50;;;2.10;;
49678;SDS011;35570;48.218;16.326;2023-04-03T07:43:54;3.38;;;2.00;;
49678;SDS011;35570;48.218;16.326;2023-04-03T07:46:21;4.88;;;2.53;;
49678;SDS011;35570;48.218;16.326;2023-04-03T07:51:44;4.18;;;2.20;;
49678;SDS011;35570;48.218;16.326;2023-04-03T07:54:14;3.38;;;2.13;;
49678;SDS011;35570;48.218;16.326;2023-04-03T07:56:59;3.53;;;2.28;;
49678;SDS011;35570;48.218;16.326;2023-04-03T07:59:35;4.18;;;2.40;;
49678;SDS011;35570;48.218;16.326;2023-04-03T08:02:11;2.75;;;2.03;;
49678;SDS011;35570;48.218;16.326;2023-04-03T08:04:37;4.80;;;2.33;;
49678;SDS011;35570;48.218;16.326;2023-04-03T08:09:59;5.20;;;2.55;;
49678;SDS011;35570;48.218;16.326;2023-04-03T08:12:45;3.00;;;2.03;;
49678;SDS011;35570;48.218;16.326;2023-04-03T08:18:33;5.22;;;2.55;;
49678;SDS011;35570;48.218;16.326;2023-04-03T08:21:16;4.72;;;2.40;;
49678;SDS011;35570;48.218;16.326;2023-04-03T08:27:05;6.25;;;2.53;;
49678;SDS011;35570;48.218;16.326;2023-04-03T08:29:33;4.18;;;2.40;;
49678;SDS011;35570;48.218;16.326;2023-04-03T08:32:16;4.25;;;2.30;;
49678;SDS011;35570;48.218;16.326;2023-04-03T08:37:31;3.47;;;1.92;;
49678;SDS011;35570;48.218;16.326;2023-04-03T08:40:07;4.10;;;1.98;;
49678;SDS011;35570;48.218;16.326;2023-04-03T08:48:12;3.88;;;2.15;;
49678;SDS011;35570;48.218;16.326;2023-04-03T08:50:39;3.05;;;1.90;;
49678;SDS011;35570;48.218;16.326;2023-04-03T08:53:12;4.20;;;2.20;;
49678;SDS011;35570;48.218;16.326;2023-04-03T08:55:45;4.53;;;2.17;;
49678;SDS011;35570;48.218;16.326;2023-04-03T08:58:16;3.10;;;2.03;;
49678;SDS011;35570;48.218;16.326;2023-04-03T09:00:52;4.32;;;2.25;;
49678;SDS011;35570;48.218;16.326;2023-04-03T09:03:22;4.13;;;2.10;;
49678;SDS011;35570;48.218;16.326;2023-04-03T09:20:39;3.95;;;2.25;;
49678;SDS011;35570;48.218;16.326;2023-04-03T09:23:25;3.55;;;1.90;;
49678;SDS011;35570;48.218;16.326;2023-04-03T09:26:09;7.30;;;2.22;;
49678;SDS011;35570;48.218;16.326;2023-04-03T09:28:43;4.55;;;2.42;;
49678;SDS011;35570;48.218;16.326;2023-04-03T09:31:16;4.18;;;2.00;;
49678;SDS011;35570;48.218;16.326;2023-04-03T09:33:47;3.53;;;2.05;;
49678;SDS011;35570;48.218;16.326;2023-04-03T09:36:33;3.35;;;2.03;;
49678;SDS011;35570;48.218;16.326;2023-04-03T09:39:14;4.20;;;1.65;;
49678;SDS011;35570;48.218;16.326;2023-04-03T09:41:55;2.85;;;1.40;;
49678;SDS011;35570;48.218;16.326;2023-04-03T09:44:40;3.13;;;1.80;;
49678;SDS011;35570;48.218;16.326;2023-04-03T09:49:48;5.55;;;1.98;;
49678;SDS011;35570;48.218;16.326;2023-04-03T09:52:22;3.55;;;1.90;;
49678;SDS011;35570;48.218;16.326;2023-04-03T09:54:49;4.07;;;2.05;;
49678;SDS011;35570;48.218;16.326;2023-04-03T09:57:15;4.25;;;1.80;;
49678;SDS011;35570;48.218;16.326;2023-04-03T09:59:46;2.72;;;1.77;;
49678;SDS011;35570;48.218;16.326;2023-04-03T10:02:30;4.13;;;2.15;;
49678;SDS011;35570;48.218;16.326;2023-04-03T10:05:02;4.35;;;2.40;;
49678;SDS011;35570;48.218;16.326;2023-04-03T10:10:18;4.88;;;2.47;;
49678;SDS011;35570;48.218;16.326;2023-04-03T10:12:48;4.82;;;2.58;;
49678;SDS011;35570;48.218;16.326;2023-04-03T10:15:28;3.78;;;2.58;;
49678;SDS011;35570;48.218;16.326;2023-04-03T10:17:58;3.55;;;2.03;;
49678;SDS011;35570;48.218;16.326;2023-04-03T10:20:45;3.72;;;2.38;;
49678;SDS011;35570;48.218;16.326;2023-04-03T10:23:19;5.82;;;2.05;;
49678;SDS011;35570;48.218;16.326;2023-04-03T10:48:44;4.43;;;2.05;;
49678;SDS011;35570;48.218;16.326;2023-04-03T10:51:25;4.18;;;2.38;;
49678;SDS011;35570;48.218;16.326;2023-04-03T10:54:25;4.70;;;2.30;;
49678;SDS011;35570;48.218;16.326;2023-04-03T10:57:08;4.50;;;2.20;;
49678;SDS011;35570;48.218;16.326;2023-04-03T11:11:44;4.70;;;1.70;;
49678;SDS011;35570;48.218;16.326;2023-04-03T11:16:49;2.97;;;1.70;;
49678;SDS011;35570;48.218;16.326;2023-04-03T11:22:03;3.38;;;1.60;;
49678;SDS011;35570;48.218;16.326;2023-04-03T11:25:36;3.38;;;1.98;;
49678;SDS011;35570;48.218;16.326;2023-04-03T11:27:44;6.05;;;2.35;;
49678;SDS011;35570;48.218;16.326;2023-04-03T11:30:20;4.88;;;2.08;;
49678;SDS011;35570;48.218;16.326;2023-04-03T11:35:21;5.63;;;2.22;;
49678;SDS011;35570;48.218;16.326;2023-04-03T11:37:50;3.58;;;1.98;;
49678;SDS011;35570;48.218;16.326;2023-04-03T11:50:57;4.82;;;2.70;;
49678;SDS011;35570;48.218;16.326;2023-04-03T11:53:34;3.58;;;2.03;;
49678;SDS011;35570;48.218;16.326;2023-04-03T11:56:02;3.60;;;2.13;;
49678;SDS011;35570;48.218;16.326;2023-04-03T11:58:33;3.00;;;1.70;;
49678;SDS011;35570;48.218;16.326;2023-04-03T12:35:28;5.03;;;2.65;;
49678;SDS011;35570;48.218;16.326;2023-04-03T12:46:23;5.13;;;2.30;;
49678;SDS011;35570;48.218;16.326;2023-04-03T12:48:57;4.32;;;2.00;;
49678;SDS011;35570;48.218;16.326;2023-04-03T12:51:34;3.63;;;1.88;;
49678;SDS011;35570;48.218;16.326;2023-04-03T12:54:16;5.25;;;2.40;;
49678;SDS011;35570;48.218;16.326;2023-04-03T13:02:25;6.50;;;2.20;;
49678;SDS011;35570;48.218;16.326;2023-04-03T13:04:53;5.43;;;2.30;;
49678;SDS011;35570;48.218;16.326;2023-04-03T13:07:25;4.07;;;2.08;;
49678;SDS011;35570;48.218;16.326;2023-04-03T13:10:13;3.07;;;1.93;;
49678;SDS011;35570;48.218;16.326;2023-04-03T13:12:48;3.33;;;1.90;;
49678;SDS011;35570;48.218;16.326;2023-04-03T13:15:56;4.05;;;1.88;;
49678;SDS011;35570;48.218;16.326;2023-04-03T13:18:29;3.83;;;1.98;;
49678;SDS011;35570;48.218;16.326;2023-04-03T13:20:53;2.83;;;2.10;;
49678;SDS011;35570;48.218;16.326;2023-04-03T13:23:25;6.57;;;2.88;;
49678;SDS011;35570;48.218;16.326;2023-04-03T13:25:51;5.85;;;2.85;;
49678;SDS011;35570;48.218;16.326;2023-04-03T13:28:20;3.05;;;1.63;;
49678;SDS011;35570;48.218;16.326;2023-04-03T13:31:03;4.55;;;2.15;;
49678;SDS011;35570;48.218;16.326;2023-04-03T13:33:31;3.17;;;1.60;;
49678;SDS011;35570;48.218;16.326;2023-04-03T13:38:45;5.30;;;2.60;;
49678;SDS011;35570;48.218;16.326;2023-04-03T13:47:37;4.22;;;2.00;;
49678;SDS011;35570;48.218;16.326;2023-04-03T13:49:41;4.50;;;2.08;;
49678;SDS011;35570;48.218;16.326;2023-04-03T13:55:21;2.75;;;1.67;;
49678;SDS011;35570;48.218;16.326;2023-04-03T14:00:39;3.80;;;2.15;;
49678;SDS011;35570;48.218;16.326;2023-04-03T14:03:23;3.92;;;1.80;;
49678;SDS011;35570;48.218;16.326;2023-04-03T14:05:49;5.50;;;2.00;;
49678;SDS011;35570;48.218;16.326;2023-04-03T14:08:15;4.10;;;2.30;;
49678;SDS011;35570;48.218;16.326;2023-04-03T14:10:41;3.78;;;2.00;;
49678;SDS011;35570;48.218;16.326;2023-04-03T14:13:12;3.55;;;1.88;;
49678;SDS011;35570;48.218;16.326;2023-04-03T14:15:40;3.30;;;1.90;;
49678;SDS011;35570;48.218;16.326;2023-04-03T14:18:10;3.08;;;1.70;;
49678;SDS011;35570;48.218;16.326;2023-04-03T14:20:40;2.47;;;1.70;;
49678;SDS011;35570;48.218;16.326;2023-04-03T14:23:06;3.70;;;1.83;;
49678;SDS011;35570;48.218;16.326;2023-04-03T14:25:32;2.28;;;1.30;;
49678;SDS011;35570;48.218;16.326;2023-04-03T14:27:58;7.55;;;1.88;;
49678;SDS011;35570;48.218;16.326;2023-04-03T14:30:32;3.83;;;1.75;;
49678;SDS011;35570;48.218;16.326;2023-04-03T14:32:59;2.08;;;1.33;;
49678;SDS011;35570;48.218;16.326;2023-04-03T14:35:25;3.95;;;1.83;;
49678;SDS011;35570;48.218;16.326;2023-04-03T14:37:52;2.83;;;1.80;;
49678;SDS011;35570;48.218;16.326;2023-04-03T14:40:20;2.85;;;1.55;;
49678;SDS011;35570;48.218;16.326;2023-04-03T14:42:52;4.00;;;1.83;;
49678;SDS011;35570;48.218;16.326;2023-04-03T14:45:21;3.30;;;1.80;;
49678;SDS011;35570;48.218;16.326;2023-04-03T14:47:49;2.47;;;1.58;;
49678;SDS011;35570;48.218;16.326;2023-04-03T14:50:19;3.65;;;1.73;;
49678;SDS011;35570;48.218;16.326;2023-04-03T14:52:47;2.35;;;1.60;;
49678;SDS011;35570;48.218;16.326;2023-04-03T14:55:15;2.13;;;1.52;;
49678;SDS011;35570;48.218;16.326;2023-04-03T14:57:41;4.40;;;2.50;;
49678;SDS011;35570;48.218;16.326;2023-04-03T15:00:12;3.25;;;1.95;;
49678;SDS011;35570;48.218;16.326;2023-04-03T15:02:42;3.13;;;1.80;;
49678;SDS011;35570;48.218;16.326;2023-04-03T15:05:09;3.65;;;2.25;;
49678;SDS011;35570;48.218;16.326;2023-04-03T15:07:37;4.60;;;3.17;;
49678;SDS011;35570;48.218;16.326;2023-04-03T15:12:54;6.45;;;2.83;;
49678;SDS011;35570;48.218;16.326;2023-04-03T15:15:21;3.15;;;1.75;;
49678;SDS011;35570;48.218;16.326;2023-04-03T15:17:51;3.10;;;1.65;;
49678;SDS011;35570;48.218;16.326;2023-04-03T15:20:25;3.75;;;2.00;;
49678;SDS011;35570;48.218;16.326;2023-04-03T15:22:55;3.40;;;1.77;;
49678;SDS011;35570;48.218;16.326;2023-04-03T15:25:21;3.63;;;1.50;;
49678;SDS011;35570;48.218;16.326;2023-04-03T15:27:48;3.58;;;1.92;;
49678;SDS011;35570;48.218;16.326;2023-04-03T15:30:17;4.72;;;1.90;;
49678;SDS011;35570;48.218;16.326;2023-04-03T15:32:43;3.45;;;1.80;;
49678;SDS011;35570;48.218;16.326;2023-04-03T15:35:09;3.08;;;1.95;;
49678;SDS011;35570;48.218;16.326;2023-04-03T15:37:35;3.78;;;1.40;;
49678;SDS011;35570;48.218;16.326;2023-04-03T15:40:01;3.88;;;1.60;;
49678;SDS011;35570;48.218;16.326;2023-04-03T15:42:29;2.88;;;1.77;;
49678;SDS011;35570;48.218;16.326;2023-04-03T15:44:55;3.00;;;2.40;;
49678;SDS011;35570;48.218;16.326;2023-04-03T15:47:21;3.30;;;2.08;;
49678;SDS011;35570;48.218;16.326;2023-04-03T15:49:46;2.85;;;1.88;;
49678;SDS011;35570;48.218;16.326;2023-04-03T15:52:13;4.65;;;1.65;;
49678;SDS011;35570;48.218;16.326;2023-04-03T15:54:38;4.93;;;1.60;;
49678;SDS011;35570;48.218;16.326;2023-04-03T15:57:04;3.83;;;1.90;;
49678;SDS011;35570;48.218;16.326;2023-04-03T15:59:30;4.65;;;1.90;;
49678;SDS011;35570;48.218;16.326;2023-04-03T16:01:57;3.70;;;1.90;;
49678;SDS011;35570;48.218;16.326;2023-04-03T16:04:25;3.50;;;1.67;;
49678;SDS011;35570;48.218;16.326;2023-04-03T16:06:51;4.30;;;1.50;;
49678;SDS011;35570;48.218;16.326;2023-04-03T16:09:17;3.15;;;1.80;;
49678;SDS011;35570;48.218;16.326;2023-04-03T16:11:42;2.50;;;1.73;;
49678;SDS011;35570;48.218;16.326;2023-04-03T16:14:09;3.42;;;1.63;;
49678;SDS011;35570;48.218;16.326;2023-04-03T16:16:35;3.97;;;2.03;;
49678;SDS011;35570;48.218;16.326;2023-04-03T16:19:01;3.85;;;2.00;;
49678;SDS011;35570;48.218;16.326;2023-04-03T16:21:27;4.53;;;2.20;;
49678;SDS011;35570;48.218;16.326;2023-04-03T16:23:55;3.65;;;1.77;;
49678;SDS011;35570;48.218;16.326;2023-04-03T16:26:25;3.78;;;1.58;;
49678;SDS011;35570;48.218;16.326;2023-04-03T16:28:51;3.95;;;1.58;;
49678;SDS011;35570;48.218;16.326;2023-04-03T16:31:17;3.70;;;1.88;;
49678;SDS011;35570;48.218;16.326;2023-04-03T16:33:43;4.55;;;1.95;;
49678;SDS011;35570;48.218;16.326;2023-04-03T16:36:09;4.47;;;1.90;;
49678;SDS011;35570;48.218;16.326;2023-04-03T16:38:35;4.13;;;1.70;;
49678;SDS011;35570;48.218;16.326;2023-04-03T16:41:01;3.65;;;2.15;;
49678;SDS011;35570;48.218;16.326;2023-04-03T16:43:30;5.00;;;2.10;;
49678;SDS011;35570;48.218;16.326;2023-04-03T16:45:57;4.47;;;1.80;;
49678;SDS011;35570;48.218;16.326;2023-04-03T16:48:24;4.00;;;1.60;;
49678;SDS011;35570;48.218;16.326;2023-04-03T16:50:56;4.25;;;1.83;;
49678;SDS011;35570;48.218;16.326;2023-04-03T16:53:22;3.08;;;2.00;;
49678;SDS011;35570;48.218;16.326;2023-04-03T16:55:50;4.65;;;2.03;;
49678;SDS011;35570;48.218;16.326;2023-04-03T16:58:16;4.13;;;2.45;;
49678;SDS011;35570;48.218;16.326;2023-04-03T17:00:42;4.10;;;2.58;;
49678;SDS011;35570;48.218;16.326;2023-04-03T17:03:08;3.85;;;2.22;;
49678;SDS011;35570;48.218;16.326;2023-04-03T17:05:34;4.15;;;2.30;;
49678;SDS011;35570;48.218;16.326;2023-04-03T17:08:00;5.90;;;2.72;;
49678;SDS011;35570;48.218;16.326;2023-04-03T17:10:28;6.22;;;3.50;;
49678;SDS011;35570;48.218;16.326;2023-04-03T17:12:54;8.90;;;4.10;;
49678;SDS011;35570;48.218;16.326;2023-04-03T17:15:20;6.72;;;2.97;;
49678;SDS011;35570;48.218;16.326;2023-04-03T17:17:47;4.97;;;3.10;;
49678;SDS011;35570;48.218;16.326;2023-04-03T17:20:16;6.00;;;3.53;;
49678;SDS011;35570;48.218;16.326;2023-04-03T17:22:42;5.95;;;3.85;;
49678;SDS011;35570;48.218;16.326;2023-04-03T17:25:09;8.38;;;4.18;;
49678;SDS011;35570;48.218;16.326;2023-04-03T17:27:35;7.03;;;3.33;;
49678;SDS011;35570;48.218;16.326;2023-04-03T17:30:01;4.47;;;2.88;;
49678;SDS011;35570;48.218;16.326;2023-04-03T17:32:29;6.45;;;3.15;;
49678;SDS011;35570;48.218;16.326;2023-04-03T17:34:55;3.78;;;2.70;;
49678;SDS011;35570;48.218;16.326;2023-04-03T17:37:21;3.42;;;2.30;;
49678;SDS011;35570;48.218;16.326;2023-04-03T17:39:48;7.05;;;2.85;;
49678;SDS011;35570;48.218;16.326;2023-04-03T17:42:14;4.20;;;2.75;;
49678;SDS011;35570;48.218;16.326;2023-04-03T17:44:40;5.20;;;2.85;;
49678;SDS011;35570;48.218;16.326;2023-04-03T17:47:12;5.53;;;3.05;;
49678;SDS011;35570;48.218;16.326;2023-04-03T17:49:39;5.80;;;2.60;;
49678;SDS011;35570;48.218;16.326;2023-04-03T17:52:05;4.47;;;2.80;;
49678;SDS011;35570;48.218;16.326;2023-04-03T17:54:31;4.13;;;2.25;;
49678;SDS011;35570;48.218;16.326;2023-04-03T17:56:56;4.28;;;2.13;;
49678;SDS011;35570;48.218;16.326;2023-04-03T17:59:22;4.38;;;1.67;;
49678;SDS011;35570;48.218;16.326;2023-04-03T18:01:48;4.40;;;2.35;;
49678;SDS011;35570;48.218;16.326;2023-04-03T18:04:15;5.72;;;2.92;;
49678;SDS011;35570;48.218;16.326;2023-04-03T18:06:45;4.35;;;2.65;;
49678;SDS011;35570;48.218;16.326;2023-04-03T18:09:16;3.45;;;2.33;;
49678;SDS011;35570;48.218;16.326;2023-04-03T18:11:44;4.28;;;2.22;;
49678;SDS011;35570;48.218;16.326;2023-04-03T18:14:12;6.13;;;2.63;;
49678;SDS011;35570;48.218;16.326;2023-04-03T18:16:40;6.32;;;2.22;;
49678;SDS011;35570;48.218;16.326;2023-04-03T18:19:06;4.85;;;2.33;;
49678;SDS011;35570;48.218;16.326;2023-04-03T18:21:34;6.38;;;3.85;;
49678;SDS011;35570;48.218;16.326;2023-04-03T18:24:00;8.35;;;3.20;;
49678;SDS011;35570;48.218;16.326;2023-04-03T18:26:29;7.45;;;3.53;;
49678;SDS011;35570;48.218;16.326;2023-04-03T18:28:58;5.38;;;2.67;;
49678;SDS011;35570;48.218;16.326;2023-04-03T18:31:28;9.05;;;3.25;;
49678;SDS011;35570;48.218;16.326;2023-04-03T18:33:57;4.60;;;2.58;;
49678;SDS011;35570;48.218;16.326;2023-04-03T18:36:23;3.72;;;2.47;;
49678;SDS011;35570;48.218;16.326;2023-04-03T18:38:51;6.72;;;2.65;;
49678;SDS011;35570;48.218;16.326;2023-04-03T18:41:19;5.80;;;2.50;;
49678;SDS011;35570;48.218;16.326;2023-04-03T18:43:48;5.15;;;2.50;;
49678;SDS011;35570;48.218;16.326;2023-04-03T18:46:15;5.07;;;2.78;;
49678;SDS011;35570;48.218;16.326;2023-04-03T18:48:43;7.13;;;3.80;;
49678;SDS011;35570;48.218;16.326;2023-04-03T18:51:19;4.97;;;2.95;;
49678;SDS011;35570;48.218;16.326;2023-04-03T18:53:46;7.35;;;3.00;;
49678;SDS011;35570;48.218;16.326;2023-04-03T18:59:21;5.50;;;2.83;;
49678;SDS011;35570;48.218;16.326;2023-04-03T19:01:50;4.60;;;2.50;;
49678;SDS011;35570;48.218;16.326;2023-04-03T19:04:18;5.82;;;3.20;;
49678;SDS011;35570;48.218;16.326;2023-04-03T19:06:49;5.30;;;2.60;;
49678;SDS011;35570;48.218;16.326;2023-04-03T19:09:17;8.60;;;4.27;;
49678;SDS011;35570;48.218;16.326;2023-04-03T19:11:45;9.27;;;4.70;;
49678;SDS011;35570;48.218;16.326;2023-04-03T19:14:12;6.50;;;3.33;;
49678;SDS011;35570;48.218;16.326;2023-04-03T19:16:38;5.10;;;2.95;;
49678;SDS011;35570;48.218;16.326;2023-04-03T19:19:06;7.63;;;3.88;;
49678;SDS011;35570;48.218;16.326;2023-04-03T19:21:33;5.30;;;2.90;;
49678;SDS011;35570;48.218;16.326;2023-04-03T19:24:04;5.53;;;2.63;;
49678;SDS011;35570;48.218;16.326;2023-04-03T19:26:43;6.22;;;3.28;;
49678;SDS011;35570;48.218;16.326;2023-04-03T19:29:11;5.47;;;3.17;;
49678;SDS011;35570;48.218;16.326;2023-04-03T19:31:37;4.97;;;2.92;;
49678;SDS011;35570;48.218;16.326;2023-04-03T19:34:06;4.22;;;2.38;;
49678;SDS011;35570;48.218;16.326;2023-04-03T19:36:32;4.32;;;2.30;;
49678;SDS011;35570;48.218;16.326;2023-04-03T19:39:00;5.00;;;2.42;;
49678;SDS011;35570;48.218;16.326;2023-04-03T19:41:27;4.57;;;2.13;;
49678;SDS011;35570;48.218;16.326;2023-04-03T19:43:55;3.08;;;1.65;;
49678;SDS011;35570;48.218;16.326;2023-04-03T19:46:22;3.67;;;1.95;;
49678;SDS011;35570;48.218;16.326;2023-04-03T19:48:49;3.35;;;2.08;;
49678;SDS011;35570;48.218;16.326;2023-04-03T19:51:15;4.88;;;2.40;;
49678;SDS011;35570;48.218;16.326;2023-04-03T19:53:41;6.57;;;2.70;;
49678;SDS011;35570;48.218;16.326;2023-04-03T19:56:07;5.10;;;2.67;;
49678;SDS011;35570;48.218;16.326;2023-04-03T19:58:34;6.32;;;2.20;;
49678;SDS011;35570;48.218;16.326;2023-04-03T20:01:01;7.20;;;1.90;;